Latest Weather Observations for Inner Beacon

IDQ60901

Issued at 8:21 pm EST Friday 23 June 2017 (issued every 10 minutes, with the page automatically refreshed every 10 minutes)

About weather observations | Map of Brisbane area stations | Latest observations for Brisbane area | Other Formats
Station Details ID: 040926 Name: INNER RECIPROCAL MARKER Lat: -27.26 Lon: 153.24 Height: 20.0 m
Data from the previous 72 hours. | See also: Recent months for locations in Queensland
Date/Time
EST
Temp
°C
App
Temp
°C
Dew
Point
°C
Rel
Hum
%
Delta-T
°C
Wind Press
QNH
hPa
Press
MSL
hPa
Rain since
9am
mm
Dir  Spd
km/h
Gust
km/h
Spd
kts
Gust
kts
23/08:00pm - - - - - NNE 9 11 5 6 - - -
23/07:30pm - - - - - NE 13 15 7 8 - - -
23/07:00pm - - - - - NNE 11 13 6 7 - - -
23/06:30pm - - - - - NNE 13 13 7 7 - - -
23/06:00pm - - - - - NE 11 13 6 7 - - -
23/05:30pm - - - - - NE 9 9 5 5 - - -
23/05:00pm - - - - - NE 9 9 5 5 - - -
23/04:30pm - - - - - NE 9 11 5 6 - - -
23/04:00pm - - - - - ENE 7 9 4 5 - - -
23/03:30pm - - - - - E 7 9 4 5 - - -
23/03:00pm - - - - - NE 11 11 6 6 - - -
23/02:30pm - - - - - ENE 6 7 3 4 - - -
23/02:00pm - - - - - ENE 6 6 3 3 - - -
23/01:30pm - - - - - SSE 4 4 2 2 - - -
23/01:00pm - - - - - SSE 2 2 1 1 - - -
23/12:30pm - - - - - SSE 4 4 2 2 - - -
23/12:00pm - - - - - S 6 7 3 4 - - -
23/11:30am - - - - - S 7 9 4 5 - - -
23/11:00am - - - - - SSW 11 13 6 7 - - -
23/10:30am - - - - - SW 19 20 10 11 - - -
23/10:00am - - - - - SW 19 20 10 11 - - -
23/09:30am - - - - - SW 17 19 9 10 - - -
23/09:00am - - - - - SW 13 15 7 8 - - -
23/08:30am - - - - - SW 17 19 9 10 - - -
23/08:00am - - - - - SW 17 19 9 10 - - -
23/07:30am - - - - - SW 17 20 9 11 - - -
23/07:00am - - - - - SW 20 24 11 13 - - -
23/06:30am - - - - - SW 17 20 9 11 - - -
23/06:00am - - - - - SW 19 20 10 11 - - -
23/05:30am - - - - - SW 19 20 10 11 - - -
23/05:00am - - - - - SW 17 20 9 11 - - -
23/04:30am - - - - - SW 20 24 11 13 - - -
23/04:00am - - - - - SW 19 22 10 12 - - -
23/03:30am - - - - - SW 20 24 11 13 - - -
23/03:00am - - - - - SW 20 22 11 12 - - -
23/02:30am - - - - - SW 20 22 11 12 - - -
23/02:00am - - - - - SW 19 20 10 11 - - -
23/01:30am - - - - - SW 15 17 8 9 - - -
23/01:00am - - - - - SW 17 20 9 11 - - -
23/12:30am - - - - - SW 13 15 7 8 - - -
23/12:00am - - - - - SW 11 13 6 7 - - -
 
Date/Time
EST
Temp
°C
App
Temp
°C
Dew
Point
°C
Rel
Hum
%
Delta-T
°C
Wind Press
QNH
hPa
Press
MSL
hPa
Rain since
9am
mm
Dir  Spd
km/h
Gust
km/h
Spd
kts
Gust
kts
22/11:30pm - - - - - SW 9 13 5 7 - - -
22/11:00pm - - - - - SW 13 15 7 8 - - -
22/10:30pm - - - - - SW 13 15 7 8 - - -
22/10:00pm - - - - - SSW 11 13 6 7 - - -
22/09:30pm - - - - - S 7 11 4 6 - - -
22/09:00pm - - - - - S 11 13 6 7 - - -
22/08:30pm - - - - - SSE 11 11 6 6 - - -
22/08:00pm - - - - - SE 13 15 7 8 - - -
22/07:30pm - - - - - SE 19 22 10 12 - - -
22/07:00pm - - - - - SE 20 24 11 13 - - -
22/06:30pm - - - - - SSE 20 24 11 13 - - -
22/06:00pm - - - - - SSE 22 26 12 14 - - -
22/05:30pm - - - - - SSE 24 30 13 16 - - -
22/05:00pm - - - - - SSE 22 26 12 14 - - -
22/04:30pm - - - - - SSE 24 28 13 15 - - -
22/04:00pm - - - - - SSE 22 30 12 16 - - -
22/03:30pm - - - - - SSE 24 28 13 15 - - -
22/03:00pm - - - - - SSE 20 26 11 14 - - -
22/02:30pm - - - - - SSE 24 30 13 16 - - -
22/02:00pm - - - - - SSE 22 28 12 15 - - -
22/01:30pm - - - - - SSE 22 24 12 13 - - -
22/01:00pm - - - - - SSE 20 24 11 13 - - -
22/12:30pm - - - - - SSE 22 28 12 15 - - -
22/12:00pm - - - - - S 22 28 12 15 - - -
22/11:30am - - - - - S 20 26 11 14 - - -
22/11:00am - - - - - SSW 20 24 11 13 - - -
22/10:30am - - - - - SSW 22 24 12 13 - - -
22/10:00am - - - - - SSW 24 30 13 16 - - -
22/09:30am - - - - - SSW 28 33 15 18 - - -
22/09:00am - - - - - SSW 26 32 14 17 - - -
22/08:30am - - - - - SSW 26 32 14 17 - - -
22/08:00am - - - - - SSW 30 35 16 19 - - -
22/07:30am - - - - - SSW 32 35 17 19 - - -
22/07:00am - - - - - SSW 28 33 15 18 - - -
22/06:30am - - - - - SSW 28 35 15 19 - - -
22/06:00am - - - - - SSW 28 32 15 17 - - -
22/05:30am - - - - - SSW 22 26 12 14 - - -
22/05:00am - - - - - SSW 22 24 12 13 - - -
22/04:30am - - - - - SSW 22 26 12 14 - - -
22/04:00am - - - - - SSW 28 32 15 17 - - -
22/03:30am - - - - - SSW 20 24 11 13 - - -
22/03:00am - - - - - SSW 20 24 11 13 - - -
22/02:30am - - - - - SSW 20 22 11 12 - - -
22/02:00am - - - - - SW 19 20 10 11 - - -
22/01:30am - - - - - SSW 19 22 10 12 - - -
22/01:00am - - - - - SSW 20 22 11 12 - - -
22/12:30am - - - - - SSW 22 24 12 13 - - -
22/12:00am - - - - - SSW 22 26 12 14 - - -
 
Date/Time
EST
Temp
°C
App
Temp
°C
Dew
Point
°C
Rel
Hum
%
Delta-T
°C
Wind Press
QNH
hPa
Press
MSL
hPa
Rain since
9am
mm
Dir  Spd
km/h
Gust
km/h
Spd
kts
Gust
kts
21/11:30pm - - - - - SSW 22 26 12 14 - - -
21/11:00pm - - - - - SSW 22 26 12 14 - - -
21/10:30pm - - - - - SSW 26 30 14 16 - - -
21/10:00pm - - - - - S 26 30 14 16 - - -
21/09:30pm - - - - - SSW 24 30 13 16 - - -
21/09:00pm - - - - - S 19 20 10 11 - - -
21/08:30pm - - - - - S 15 19 8 10 - - -
21/08:00pm - - - - - SSW 17 19 9 10 - - -
21/07:30pm - - - - - S 15 17 8 9 - - -
21/07:00pm - - - - - SSE 17 20 9 11 - - -
21/06:30pm - - - - - SSW 11 13 6 7 - - -
21/06:00pm - - - - - SSE 15 19 8 10 - - -
21/05:30pm - - - - - SSE 19 22 10 12 - - -
21/05:00pm - - - - - SSE 13 17 7 9 - - -
21/04:30pm - - - - - SSE 19 20 10 11 - - -
21/04:00pm - - - - - SSE 7 9 4 5 - - -
21/03:30pm - - - - - SSE 7 9 4 5 - - -
21/03:00pm - - - - - SSE 6 7 3 4 - - -
21/02:30pm - - - - - SSE 11 13 6 7 - - -
21/02:00pm - - - - - S 13 15 7 8 - - -
21/01:30pm - - - - - S 11 13 6 7 - - -
21/01:00pm - - - - - S 11 13 6 7 - - -
21/12:30pm - - - - - SSW 13 15 7 8 - - -
21/12:00pm - - - - - SW 15 17 8 9 - - -
21/11:30am - - - - - SW 19 22 10 12 - - -
21/11:00am - - - - - SSW 19 22 10 12 - - -
21/10:30am - - - - - SW 20 24 11 13 - - -
21/10:00am - - - - - SW 24 28 13 15 - - -
21/09:30am - - - - - SSW 24 28 13 15 - - -
21/09:00am - - - - - SSW 24 28 13 15 - - -
21/08:30am - - - - - SW 24 30 13 16 - - -
21/08:00am - - - - - SW 26 32 14 17 - - -
21/07:30am - - - - - SW 24 28 13 15 - - -
21/07:00am - - - - - SW 22 26 12 14 - - -
21/06:30am - - - - - SSW 26 32 14 17 - - -
21/06:00am - - - - - SSW 26 30 14 16 - - -
21/05:30am - - - - - SSW 26 30 14 16 - - -
21/05:00am - - - - - SW 26 32 14 17 - - -
21/04:30am - - - - - SSW 26 32 14 17 - - -
21/04:00am - - - - - SSW 28 32 15 17 - - -
21/03:30am - - - - - SSW 28 32 15 17 - - -
21/03:00am - - - - - SSW 30 35 16 19 - - -
21/02:30am - - - - - SSW 32 37 17 20 - - -
21/02:00am - - - - - SSW 26 30 14 16 - - -
21/01:30am - - - - - SSW 26 30 14 16 - - -
21/01:00am - - - - - SSW 28 32 15 17 - - -
21/12:30am - - - - - SSW 32 35 17 19 - - -
21/12:00am - - - - - SSW 30 35 16 19 - - -
 
Date/Time
EST
Temp
°C
App
Temp
°C
Dew
Point
°C
Rel
Hum
%
Delta-T
°C
Wind Press
QNH
hPa
Press
MSL
hPa
Rain since
9am
mm
Dir  Spd
km/h
Gust
km/h
Spd
kts
Gust
kts
20/11:30pm - - - - - SSW 28 35 15 19 - - -
20/11:00pm - - - - - SSW 30 35 16 19 - - -
20/10:30pm - - - - - SSW 28 33 15 18 - - -
20/10:00pm - - - - - SSW 24 28 13 15 - - -
20/09:30pm - - - - - SSW 24 28 13 15 - - -
20/09:00pm - - - - - SSW 24 30 13 16 - - -
20/08:30pm - - - - - SSW 26 30 14 16 - - -

Latest Capital City Observations: Canberra | Sydney | Melbourne | Brisbane | Adelaide | Perth | Hobart | Darwin

Other Formats:

Comma delimited format used in spreadsheet applications
http://www.bom.gov.au/fwo/IDQ60901/IDQ60901.94590.axf

JavaScript Object Notation format (JSON) in row-major order
http://www.bom.gov.au/fwo/IDQ60901/IDQ60901.94590.json